KDXR

Danbury Municipal Airport

Danbury, Connecticut, USA
METAR KDXR 250053Z 19006KT 10SM CLR 21/07 A3008 RMK AO2 SLP182 T02110067
Observed Flight Rules
May-25 @ 00:53 UTC (30 minutes ago) Visual Flight Rules
Wind Visibility Clouds
190° at 6 knots 10 miles
  • Clear skies
Temperatures Readings
Current 21°C / 70°F
Dewpoint 7°C / 45°F
Humidity 40%
Altimeter 30.08" Hg
Pressure 1018.2 hPa
Elevation 139
METAR KDXR 250053Z 19006KT 10SM CLR 21/07 A3008 RMK AO2 SLP182 T02110067
Observed Flight Rules
May-25 @ 00:53 UTC
(30 minutes ago)
VFR
Wind Visibility
190° at 6 knots 10 miles
Clouds
  • Clear skies
Temperature Dewpoint
21°C / 70°F 7°C / 45°F
Humidity Altimeter Pressure
40% 30.08" Hg 1018.2 hPa